Time;durP1;ratioP1;P1;durP2;ratioP2;P2;SDS_P1;SDS_P2;PMS_P1;PMS_P2;Temp;Humidity;BMP_temperature;BMP_pressure;BME280_temperature;BME280_humidity;BME280_pressure;Samples;Min_cycle;Max_cycle;Signal;HPM_P1;HPM_P2
2021/12/14 00:01:13;;;;;;;13.43;11.67;;;7.90;99.90;;;;;;5032589;28;20510;-83
2021/12/14 00:03:44;;;;;;;15.30;11.60;;;7.90;99.90;;;;;;5026175;28;20452;-84
2021/12/14 00:06:12;;;;;;;13.90;11.60;;;7.90;99.90;;;;;;5020075;28;20480;-84
2021/12/14 00:08:49;;;;;;;15.27;10.90;;;7.80;99.90;;;;;;5029655;28;20446;-84
2021/12/14 00:11:36;;;;;;;16.37;12.50;;;7.80;99.90;;;;;;5018381;28;20536;-85
2021/12/14 00:14:26;;;;;;;12.37;11.03;;;7.80;99.90;;;;;;5015326;28;20520;-85
2021/12/14 00:16:58;;;;;;;13.30;11.90;;;7.80;99.90;;;;;;5020589;28;20448;-84
2021/12/14 00:19:28;;;;;;;15.10;11.03;;;7.80;99.90;;;;;;5025080;28;20480;-85
2021/12/14 00:22:02;;;;;;;19.27;11.57;;;7.80;99.90;;;;;;5015262;28;20500;-89
2021/12/14 00:24:29;;;;;;;14.13;9.87;;;7.80;99.90;;;;;;5015464;28;20492;-89
2021/12/14 00:26:59;;;;;;;11.67;8.90;;;7.80;99.90;;;;;;5015621;28;20477;-89
2021/12/14 00:29:30;;;;;;;12.50;9.43;;;7.70;99.90;;;;;;5014837;28;20442;-89
2021/12/14 00:31:59;;;;;;;12.17;10.23;;;7.70;99.90;;;;;;5014948;28;20454;-90
2021/12/14 00:34:35;;;;;;;15.43;10.33;;;7.70;99.90;;;;;;5015122;28;20465;-89
2021/12/14 00:37:03;;;;;;;13.03;9.63;;;7.60;99.90;;;;;;5015202;28;20544;-89
2021/12/14 00:39:30;;;;;;;13.50;10.17;;;7.60;99.90;;;;;;5016148;28;20454;-88
2021/12/14 00:41:57;;;;;;;12.90;9.60;;;7.60;99.90;;;;;;5014339;28;20504;-88
2021/12/14 00:44:24;;;;;;;13.23;10.93;;;7.60;99.90;;;;;;5014400;28;20817;-89
2021/12/14 00:46:51;;;;;;;12.90;10.20;;;7.60;99.90;;;;;;5013699;28;21185;-89
2021/12/14 00:49:18;;;;;;;15.20;11.00;;;7.60;99.90;;;;;;5013427;28;20465;-89
2021/12/14 00:51:47;;;;;;;14.17;9.53;;;7.60;99.90;;;;;;5032445;28;20442;-88
2021/12/14 00:54:16;;;;;;;11.77;9.67;;;7.60;99.90;;;;;;5018784;28;20431;-88
2021/12/14 00:56:44;;;;;;;14.20;9.40;;;7.60;99.90;;;;;;5013328;28;20454;-89
2021/12/14 00:59:12;;;;;;;11.37;9.10;;;7.50;99.90;;;;;;5013256;28;20458;-89
2021/12/14 01:01:43;;;;;;;13.40;10.27;;;7.50;99.90;;;;;;5020942;28;20454;-87
2021/12/14 01:04:15;;;;;;;13.10;9.83;;;7.60;99.90;;;;;;5037405;28;20426;-87
2021/12/14 01:06:45;;;;;;;18.33;11.80;;;7.60;99.90;;;;;;5036169;28;20450;-88
2021/12/14 01:09:17;;;;;;;15.60;10.27;;;7.60;99.90;;;;;;5002026;28;20504;-88
2021/12/14 01:11:46;;;;;;;14.13;9.60;;;7.60;99.90;;;;;;5011379;28;20443;-88
2021/12/14 01:14:17;;;;;;;13.27;10.13;;;7.50;99.90;;;;;;5015695;28;20462;-87
2021/12/14 01:16:53;;;;;;;14.20;10.33;;;7.50;99.90;;;;;;5001312;28;20532;-88
2021/12/14 01:19:25;;;;;;;15.53;10.80;;;7.50;99.90;;;;;;5021747;28;20442;-87
2021/12/14 01:22:13;;;;;;;12.70;9.07;;;7.50;99.90;;;;;;5036087;28;20501;-88
2021/12/14 01:25:06;;;;;;;12.40;9.67;;;7.50;99.90;;;;;;5029567;28;20794;-90
2021/12/14 01:27:41;;;;;;;15.33;10.33;;;7.40;99.90;;;;;;5012107;28;20560;-88
2021/12/14 01:30:15;;;;;;;18.47;11.03;;;7.50;99.90;;;;;;5012084;28;20469;-88
2021/12/14 01:32:45;;;;;;;16.77;10.47;;;7.50;99.90;;;;;;5012758;28;20454;-89
2021/12/14 01:35:14;;;;;;;13.60;10.37;;;7.50;99.90;;;;;;5012014;28;20450;-89
2021/12/14 01:37:59;;;;;;;12.33;9.90;;;7.50;99.90;;;;;;5010972;28;20994;-89
2021/12/14 01:43:32;;;;;;;16.57;12.07;;;7.50;99.90;;;;;;5078182;27;20580;-88
2021/12/14 01:46:02;;;;;;;16.00;11.80;;;7.50;99.90;;;;;;5045806;28;20440;-88
2021/12/14 01:48:29;;;;;;;13.80;10.57;;;7.50;99.90;;;;;;5044961;27;20468;-88
2021/12/14 01:50:59;;;;;;;16.20;10.17;;;7.40;99.90;;;;;;5046792;28;20449;-88
2021/12/14 01:53:26;;;;;;;13.23;10.10;;;7.40;99.90;;;;;;5048581;28;20475;-88
2021/12/14 01:55:58;;;;;;;16.50;12.53;;;7.30;99.90;;;;;;5047819;28;20453;-87
2021/12/14 01:58:32;;;;;;;14.73;10.47;;;7.30;99.90;;;;;;5046825;28;20525;-87
2021/12/14 02:01:05;;;;;;;19.50;12.10;;;7.30;99.90;;;;;;5065825;28;20453;-88
2021/12/14 02:03:35;;;;;;;16.97;11.37;;;7.30;99.90;;;;;;5047284;28;20464;-88
2021/12/14 02:06:03;;;;;;;17.30;11.03;;;7.30;99.90;;;;;;5048601;28;20432;-88
2021/12/14 02:08:33;;;;;;;15.93;12.47;;;7.30;99.90;;;;;;5059552;28;20475;-88
2021/12/14 02:11:01;;;;;;;18.87;11.57;;;7.20;99.90;;;;;;5048408;28;20469;-88
2021/12/14 02:13:33;;;;;;;15.77;10.50;;;7.20;99.90;;;;;;5047232;28;20879;-88
2021/12/14 02:16:03;;;;;;;22.40;13.93;;;7.20;99.90;;;;;;5047313;28;20445;-88
2021/12/14 02:18:30;;;;;;;18.47;13.77;;;7.20;99.90;;;;;;5047323;28;20472;-88
2021/12/14 02:21:01;;;;;;;18.00;12.60;;;7.20;99.90;;;;;;5048603;28;20531;-87
2021/12/14 02:23:28;;;;;;;26.47;13.47;;;7.20;99.90;;;;;;5047304;28;20861;-88
2021/12/14 02:25:58;;;;;;;20.93;13.70;;;7.20;99.90;;;;;;5047048;28;20445;-88
2021/12/14 02:28:25;;;;;;;20.93;14.00;;;7.20;99.90;;;;;;5046608;28;20461;-88
2021/12/14 02:30:56;;;;;;;22.40;14.80;;;7.20;99.90;;;;;;5047333;28;20441;-88
2021/12/14 02:33:28;;;;;;;22.47;15.20;;;7.10;99.90;;;;;;5046429;28;20448;-88
2021/12/14 02:35:55;;;;;;;19.10;13.30;;;7.10;99.90;;;;;;5053928;28;20463;-87
2021/12/14 02:38:23;;;;;;;23.03;14.40;;;7.10;99.90;;;;;;5064464;28;20473;-88
2021/12/14 02:40:54;;;;;;;25.60;15.30;;;7.10;99.90;;;;;;5046213;28;20455;-88
2021/12/14 02:43:25;;;;;;;20.90;13.23;;;7.10;99.90;;;;;;5065234;28;20475;-88
2021/12/14 02:45:54;;;;;;;20.10;15.03;;;7.10;99.90;;;;;;5084437;28;20444;-88
2021/12/14 02:48:24;;;;;;;20.03;14.37;;;7.10;99.90;;;;;;5065370;28;20527;-88
2021/12/14 02:50:51;;;;;;;19.57;13.90;;;7.10;99.90;;;;;;5065104;28;20475;-88
2021/12/14 02:53:18;;;;;;;22.70;15.60;;;7.10;99.90;;;;;;5060018;28;20451;-88
2021/12/14 02:55:46;;;;;;;23.30;15.70;;;7.10;99.90;;;;;;5051730;28;20531;-88
2021/12/14 02:58:13;;;;;;;24.27;15.37;;;7.00;99.90;;;;;;5057082;28;20448;-88
2021/12/14 03:00:46;;;;;;;23.03;15.30;;;7.10;99.90;;;;;;5065211;28;20464;-87
2021/12/14 03:03:13;;;;;;;22.03;14.10;;;7.10;99.90;;;;;;5052231;28;20493;-87
2021/12/14 03:05:44;;;;;;;18.83;13.10;;;7.00;99.90;;;;;;5054910;28;20443;-87
2021/12/14 03:08:15;;;;;;;23.23;14.73;;;7.00;99.90;;;;;;5065113;27;20483;-86
2021/12/14 03:10:55;;;;;;;21.17;13.93;;;7.00;99.90;;;;;;5074950;27;20444;-86
2021/12/14 03:13:26;;;;;;;15.90;11.97;;;7.00;99.90;;;;;;5073957;27;20501;-87
2021/12/14 03:15:56;;;;;;;22.70;13.70;;;7.00;99.90;;;;;;5056736;28;20550;-87
2021/12/14 03:18:27;;;;;;;19.10;13.13;;;7.00;99.90;;;;;;5067143;28;20831;-87
2021/12/14 03:20:57;;;;;;;22.13;14.10;;;7.00;99.90;;;;;;5063074;28;20841;-87
2021/12/14 03:23:29;;;;;;;21.50;13.33;;;7.00;99.90;;;;;;5052449;28;20480;-88
2021/12/14 03:25:58;;;;;;;22.93;14.37;;;6.90;99.90;;;;;;5053487;28;20456;-88
2021/12/14 03:28:28;;;;;;;19.50;13.00;;;6.90;99.90;;;;;;5052158;28;20472;-87
2021/12/14 03:31:20;;;;;;;22.00;13.80;;;6.90;99.90;;;;;;5052584;28;20452;-88
2021/12/14 03:33:51;;;;;;;28.63;13.53;;;6.90;99.90;;;;;;5057475;28;20445;-88
2021/12/14 03:36:23;;;;;;;23.53;13.63;;;6.90;99.90;;;;;;5052740;28;20904;-88
2021/12/14 03:38:53;;;;;;;19.50;11.80;;;7.00;99.90;;;;;;5052203;28;20517;-88
2021/12/14 03:41:24;;;;;;;21.50;14.47;;;7.00;99.90;;;;;;5068668;27;20456;-87
2021/12/14 03:43:58;;;;;;;21.27;12.87;;;7.00;99.90;;;;;;5052517;28;20480;-88
2021/12/14 03:46:25;;;;;;;20.10;11.60;;;7.00;99.90;;;;;;5054186;28;20459;-88
2021/12/14 03:48:53;;;;;;;19.80;12.57;;;7.00;99.90;;;;;;5053057;28;20452;-87
2021/12/14 03:51:21;;;;;;;19.80;11.33;;;7.00;99.90;;;;;;5052844;28;20445;-88
2021/12/14 03:53:50;;;;;;;16.33;11.20;;;7.00;99.90;;;;;;5052304;28;20436;-88
2021/12/14 03:56:18;;;;;;;19.53;14.23;;;7.00;99.90;;;;;;5052660;28;20480;-88
2021/12/14 03:58:45;;;;;;;17.47;10.40;;;6.90;99.90;;;;;;5052823;28;20464;-88
2021/12/14 04:01:17;;;;;;;17.97;11.93;;;6.90;99.90;;;;;;5054452;28;20471;-88
2021/12/14 04:03:45;;;;;;;24.10;12.80;;;6.90;99.90;;;;;;5053863;28;20491;-88
2021/12/14 04:06:13;;;;;;;18.03;10.33;;;6.90;99.90;;;;;;5051448;28;20452;-88
2021/12/14 04:08:40;;;;;;;19.10;12.10;;;7.00;99.90;;;;;;5052660;28;20514;-88
2021/12/14 04:11:08;;;;;;;20.33;11.97;;;6.90;99.90;;;;;;5062213;28;20440;-88
2021/12/14 04:13:38;;;;;;;16.80;10.20;;;6.90;99.90;;;;;;5051488;28;20448;-89
2021/12/14 04:16:06;;;;;;;20.77;11.70;;;6.90;99.90;;;;;;5057212;28;20444;-87
2021/12/14 04:18:34;;;;;;;23.67;10.83;;;6.90;99.90;;;;;;5058722;28;20468;-88
2021/12/14 04:21:02;;;;;;;17.43;10.93;;;6.90;99.90;;;;;;5058490;27;20429;-86
2021/12/14 04:23:34;;;;;;;19.83;12.00;;;6.90;99.90;;;;;;5073384;27;20484;-88
2021/12/14 04:26:03;;;;;;;19.40;11.60;;;6.90;99.90;;;;;;5054035;28;20440;-88
2021/12/14 04:28:38;;;;;;;19.53;11.27;;;6.80;99.90;;;;;;5050950;28;20479;-88
2021/12/14 04:31:04;;;;;;;19.27;11.40;;;6.80;99.90;;;;;;5051898;28;20459;-88
2021/12/14 04:33:35;;;;;;;17.10;9.70;;;6.80;99.90;;;;;;5052022;28;20450;-88
2021/12/14 04:36:06;;;;;;;15.97;10.53;;;6.70;99.90;;;;;;5050913;28;20813;-89
2021/12/14 04:38:42;;;;;;;16.53;10.60;;;6.70;99.90;;;;;;5050476;28;20469;-88
2021/12/14 04:52:15;;;;;;;18.10;11.03;;;6.60;99.90;;;;;;5074566;27;20409;-88
2021/12/14 04:54:46;;;;;;;18.43;10.77;;;6.60;99.90;;;;;;5071829;27;20439;-87
2021/12/14 04:57:20;;;;;;;21.37;12.00;;;6.60;99.90;;;;;;5072071;27;20461;-86
2021/12/14 04:59:48;;;;;;;27.00;14.70;;;6.70;99.90;;;;;;5053834;28;20452;-88
2021/12/14 05:02:19;;;;;;;23.07;14.27;;;6.70;99.90;;;;;;5053684;28;20464;-88
2021/12/14 05:04:47;;;;;;;21.60;12.63;;;6.70;99.90;;;;;;5055103;28;20797;-89
2021/12/14 05:07:44;;;;;;;24.80;13.50;;;6.60;99.90;;;;;;5055257;28;20476;-88
2021/12/14 05:10:15;;;;;;;22.37;12.40;;;6.50;99.90;;;;;;5057337;28;20444;-88
2021/12/14 05:12:42;;;;;;;25.20;13.97;;;6.50;99.90;;;;;;5054739;28;20947;-89
2021/12/14 05:15:11;;;;;;;17.60;10.70;;;6.50;99.90;;;;;;5072851;27;20433;-88
2021/12/14 05:17:41;;;;;;;16.67;10.60;;;6.40;99.90;;;;;;5070352;27;20460;-88
2021/12/14 05:20:12;;;;;;;20.43;11.80;;;6.40;99.90;;;;;;5067622;27;20429;-87
2021/12/14 05:22:43;;;;;;;20.73;12.00;;;6.40;99.90;;;;;;5057879;28;20483;-88
2021/12/14 05:25:14;;;;;;;18.60;10.67;;;6.40;99.90;;;;;;5054537;28;20509;-89
2021/12/14 05:27:44;;;;;;;20.40;10.23;;;6.40;99.90;;;;;;5061912;28;20475;-88
2021/12/14 05:30:15;;;;;;;24.10;11.80;;;6.40;99.90;;;;;;5058174;28;20433;-88
2021/12/14 05:32:43;;;;;;;19.63;11.30;;;6.40;99.90;;;;;;5055014;28;20447;-89
2021/12/14 05:35:16;;;;;;;21.47;12.40;;;6.40;99.90;;;;;;5053365;28;20440;-88
2021/12/14 05:37:48;;;;;;;18.23;11.00;;;6.40;99.90;;;;;;5051856;28;20468;-88
2021/12/14 05:40:25;;;;;;;21.13;12.50;;;6.40;99.90;;;;;;5056042;28;20453;-88
2021/12/14 05:43:07;;;;;;;19.87;11.37;;;6.40;99.90;;;;;;5059904;28;20545;-87
2021/12/14 05:45:36;;;;;;;20.70;11.13;;;6.40;99.90;;;;;;5054873;28;20464;-89
2021/12/14 05:48:03;;;;;;;21.33;11.53;;;6.40;99.90;;;;;;5049096;28;20487;-89
2021/12/14 05:50:37;;;;;;;24.47;11.77;;;6.40;99.90;;;;;;5048572;28;20429;-89
2021/12/14 05:53:06;;;;;;;25.97;12.10;;;6.30;99.90;;;;;;5048945;28;20522;-89
2021/12/14 05:55:35;;;;;;;20.10;11.30;;;6.30;99.90;;;;;;5049440;28;20795;-89
2021/12/14 05:58:04;;;;;;;21.90;12.43;;;6.20;99.90;;;;;;5047806;28;20465;-88
2021/12/14 06:00:35;;;;;;;15.30;10.43;;;6.20;99.90;;;;;;5048335;28;20445;-90
2021/12/14 06:03:02;;;;;;;25.30;11.97;;;6.20;99.90;;;;;;5048365;28;21036;-91
2021/12/14 06:05:32;;;;;;;21.70;11.30;;;6.20;99.90;;;;;;5050655;28;20509;-91
2021/12/14 06:08:00;;;;;;;20.00;11.40;;;6.20;99.90;;;;;;5060728;28;20501;-89
2021/12/14 06:10:27;;;;;;;18.40;9.37;;;6.10;99.90;;;;;;5050077;28;20804;-89
2021/12/14 06:12:55;;;;;;;19.07;12.40;;;6.10;99.90;;;;;;5054610;28;20468;-90
2021/12/14 06:15:28;;;;;;;17.23;11.17;;;6.10;99.90;;;;;;5055862;28;20439;-89
2021/12/14 06:18:02;;;;;;;25.23;11.93;;;6.10;99.90;;;;;;5053173;28;21003;-89
2021/12/14 06:20:29;;;;;;;19.70;10.27;;;6.00;99.90;;;;;;5068246;28;20437;-89
2021/12/14 06:22:57;;;;;;;17.20;10.17;;;6.00;99.90;;;;;;5071030;28;20468;-90
2021/12/14 06:25:28;;;;;;;22.37;12.07;;;6.00;99.90;;;;;;5062047;28;20937;-91
2021/12/14 06:27:59;;;;;;;19.20;10.63;;;5.90;99.90;;;;;;5060841;27;20623;-87
2021/12/14 06:30:32;;;;;;;21.57;12.00;;;6.00;99.90;;;;;;5074461;28;20437;-89
2021/12/14 06:33:01;;;;;;;20.27;11.33;;;6.00;99.90;;;;;;5055001;28;20432;-89
2021/12/14 06:35:32;;;;;;;20.20;11.20;;;5.90;99.90;;;;;;5054899;28;20807;-87
2021/12/14 06:38:28;;;;;;;20.30;12.23;;;6.00;99.90;;;;;;5054440;28;20477;-88
2021/12/14 06:40:59;;;;;;;18.97;12.27;;;5.90;99.90;;;;;;5052471;28;20462;-88
2021/12/14 06:43:30;;;;;;;19.90;11.27;;;5.90;99.90;;;;;;5063321;27;20459;-89
2021/12/14 06:46:02;;;;;;;20.13;11.20;;;5.90;99.90;;;;;;5070691;28;20494;-87
2021/12/14 06:48:33;;;;;;;23.80;13.73;;;5.90;99.90;;;;;;5064816;27;21417;-87
2021/12/14 06:51:05;;;;;;;18.93;12.43;;;5.90;99.90;;;;;;5066507;28;20440;-88
2021/12/14 06:53:34;;;;;;;22.40;11.73;;;5.90;99.90;;;;;;5061856;28;20437;-88
2021/12/14 06:56:03;;;;;;;23.60;13.67;;;5.90;99.90;;;;;;5057236;28;20425;-90
2021/12/14 06:58:32;;;;;;;21.07;11.60;;;5.90;99.90;;;;;;5054798;28;20754;-89
2021/12/14 07:01:04;;;;;;;23.00;13.30;;;5.90;99.90;;;;;;5054738;28;20440;-89
2021/12/14 07:03:45;;;;;;;18.33;12.07;;;5.90;99.90;;;;;;5056035;28;20479;-89
2021/12/14 07:06:24;;;;;;;17.20;10.73;;;5.80;99.90;;;;;;5051785;28;20447;-87
2021/12/14 07:09:04;;;;;;;20.13;12.50;;;5.90;99.90;;;;;;5056395;28;20491;-91
2021/12/14 07:11:49;;;;;;;19.03;11.30;;;5.90;99.90;;;;;;5057533;28;20451;-88
2021/12/14 07:14:34;;;;;;;19.00;12.40;;;5.80;99.90;;;;;;5053591;28;20460;-88
2021/12/14 07:17:15;;;;;;;17.43;11.93;;;5.80;99.90;;;;;;5051752;28;20816;-89
2021/12/14 07:19:45;;;;;;;17.87;11.17;;;5.80;99.90;;;;;;5053967;28;20459;-89
2021/12/14 07:22:34;;;;;;;20.30;12.20;;;5.70;99.90;;;;;;5053092;28;20441;-88
2021/12/14 07:25:06;;;;;;;16.90;11.20;;;5.70;99.90;;;;;;5051572;28;20491;-89
2021/12/14 07:27:36;;;;;;;19.30;11.63;;;5.70;99.90;;;;;;5051868;28;20834;-90
2021/12/14 07:30:13;;;;;;;15.60;10.50;;;5.70;99.90;;;;;;5052555;28;20572;-89
2021/12/14 07:32:47;;;;;;;16.57;9.17;;;5.70;99.90;;;;;;5051266;28;20480;-87
2021/12/14 07:35:18;;;;;;;13.17;9.60;;;5.80;99.90;;;;;;5051648;28;20448;-88
2021/12/14 07:37:45;;;;;;;15.27;10.43;;;5.70;99.90;;;;;;5051381;28;20468;-90
2021/12/14 07:40:15;;;;;;;13.47;9.70;;;5.70;99.90;;;;;;5050919;28;20462;-88
2021/12/14 07:42:42;;;;;;;18.93;10.20;;;5.70;99.90;;;;;;5050836;28;20445;-89
2021/12/14 07:45:09;;;;;;;14.70;9.97;;;5.70;99.90;;;;;;5051072;28;20476;-90
2021/12/14 07:47:37;;;;;;;17.97;11.63;;;5.70;99.90;;;;;;5050208;28;20464;-88
2021/12/14 07:50:04;;;;;;;17.43;10.33;;;5.80;99.90;;;;;;5071893;28;20509;-87
2021/12/14 07:52:35;;;;;;;15.00;10.43;;;5.70;99.90;;;;;;5065526;28;20441;-88
2021/12/14 07:55:09;;;;;;;15.70;11.03;;;5.60;99.90;;;;;;5068296;28;20472;-87
2021/12/14 07:57:39;;;;;;;18.50;10.20;;;5.70;99.90;;;;;;5066278;28;20524;-88
2021/12/14 08:00:11;;;;;;;18.27;12.00;;;5.70;99.90;;;;;;5058689;28;20452;-89
2021/12/14 08:02:41;;;;;;;16.17;11.77;;;5.70;99.90;;;;;;5052567;28;20441;-89
2021/12/14 08:05:15;;;;;;;15.53;10.03;;;5.70;99.90;;;;;;5050319;28;20481;-88
2021/12/14 08:07:47;;;;;;;16.00;10.73;;;5.70;99.90;;;;;;5050531;28;20528;-88
2021/12/14 08:10:17;;;;;;;16.13;9.37;;;5.70;99.90;;;;;;5066667;28;20437;-91
2021/12/14 08:12:48;;;;;;;14.77;9.50;;;5.80;99.90;;;;;;5064459;28;20527;-91
2021/12/14 08:15:23;;;;;;;14.57;10.30;;;5.70;99.90;;;;;;5058151;28;20532;-91
2021/12/14 08:18:05;;;;;;;15.80;10.33;;;5.70;99.90;;;;;;5052333;28;20470;-91
2021/12/14 08:20:33;;;;;;;12.87;9.63;;;5.50;99.90;;;;;;5052862;28;20519;-91
2021/12/14 08:23:20;;;;;;;13.53;9.80;;;5.60;99.90;;;;;;5051359;28;20457;-92
2021/12/14 08:25:48;;;;;;;11.97;8.70;;;5.60;99.90;;;;;;5052724;28;20917;-91
2021/12/14 08:28:18;;;;;;;12.27;9.03;;;5.60;99.90;;;;;;5052010;28;20976;-91
2021/12/14 08:30:54;;;;;;;11.53;8.63;;;5.70;99.90;;;;;;5061244;28;20884;-91
2021/12/14 08:33:24;;;;;;;13.67;8.40;;;5.70;99.90;;;;;;5054302;28;20451;-91
2021/12/14 08:35:51;;;;;;;12.10;8.67;;;5.80;99.90;;;;;;5072513;28;20424;-92
2021/12/14 08:38:20;;;;;;;10.00;7.67;;;5.90;99.90;;;;;;5071747;27;20475;-87
2021/12/14 08:40:50;;;;;;;12.70;7.50;;;6.00;99.90;;;;;;5059604;28;20445;-89
2021/12/14 08:43:24;;;;;;;12.30;8.90;;;6.10;99.90;;;;;;5060738;27;20492;-87
2021/12/14 08:45:54;;;;;;;13.07;8.53;;;6.20;99.90;;;;;;5067895;28;20435;-88
2021/12/14 08:48:24;;;;;;;9.43;7.70;;;6.30;99.90;;;;;;5062726;28;20464;-88
2021/12/14 08:50:56;;;;;;;13.40;8.23;;;6.50;99.90;;;;;;5056462;28;20445;-88
2021/12/14 08:53:27;;;;;;;11.73;8.73;;;6.50;99.90;;;;;;5048429;28;20441;-92
2021/12/14 08:55:57;;;;;;;10.80;8.73;;;6.70;99.90;;;;;;5048280;28;20453;-88
2021/12/14 08:58:27;;;;;;;15.03;8.80;;;6.60;99.90;;;;;;5047376;28;20469;-89
2021/12/14 09:00:58;;;;;;;10.03;8.20;;;6.60;99.90;;;;;;5049309;28;20448;-84
2021/12/14 09:03:32;;;;;;;12.17;8.63;;;6.70;99.90;;;;;;5053668;28;20457;-89
2021/12/14 09:06:02;;;;;;;8.67;7.43;;;6.80;99.90;;;;;;5050403;28;21828;-90
2021/12/14 09:08:29;;;;;;;10.67;7.87;;;6.80;99.90;;;;;;5051245;28;20471;-90
2021/12/14 09:10:59;;;;;;;9.77;7.80;;;7.00;99.90;;;;;;5053829;28;20460;-90
2021/12/14 09:13:29;;;;;;;12.80;9.77;;;7.00;99.90;;;;;;5050984;28;20511;-89
2021/12/14 09:15:59;;;;;;;8.57;7.03;;;7.00;99.90;;;;;;5050716;28;20433;-89
2021/12/14 09:18:29;;;;;;;11.37;8.67;;;7.20;99.90;;;;;;5050251;28;20467;-89
2021/12/14 09:21:00;;;;;;;10.40;8.47;;;7.60;99.90;;;;;;5048307;28;20952;-87
2021/12/14 09:23:32;;;;;;;12.13;9.07;;;7.80;99.90;;;;;;5062216;28;20450;-86
2021/12/14 09:26:03;;;;;;;13.57;8.70;;;7.90;99.90;;;;;;5069421;27;20424;-84
2021/12/14 09:28:32;;;;;;;11.53;8.10;;;8.00;99.90;;;;;;5052806;28;20476;-87
2021/12/14 09:31:02;;;;;;;11.23;9.07;;;8.10;99.90;;;;;;5056464;28;20444;-85
2021/12/14 09:33:30;;;;;;;11.07;9.13;;;8.10;99.90;;;;;;5069453;28;20446;-86
2021/12/14 09:35:57;;;;;;;13.90;9.87;;;8.30;99.90;;;;;;5053883;28;20451;-86
2021/12/14 09:38:32;;;;;;;12.50;8.57;;;8.50;99.90;;;;;;5049462;28;20508;-87
2021/12/14 09:41:03;;;;;;;11.30;9.30;;;8.50;99.90;;;;;;5048765;28;20501;-87
2021/12/14 09:43:32;;;;;;;10.83;8.40;;;8.50;99.90;;;;;;5048073;28;20806;-87
2021/12/14 09:46:01;;;;;;;8.40;7.60;;;8.80;99.90;;;;;;5058582;27;20496;-85
2021/12/14 09:48:32;;;;;;;11.40;8.53;;;8.90;99.90;;;;;;5053676;28;20457;-87
2021/12/14 09:51:07;;;;;;;10.90;8.70;;;9.10;99.90;;;;;;5057069;28;20883;-86
2021/12/14 09:53:36;;;;;;;13.23;8.37;;;9.60;99.90;;;;;;5047043;28;20897;-87
2021/12/14 09:56:06;;;;;;;9.97;8.00;;;9.60;99.90;;;;;;5052909;28;20824;-86
2021/12/14 09:58:37;;;;;;;8.53;7.73;;;9.50;99.90;;;;;;5057358;28;20460;-87
2021/12/14 10:01:09;;;;;;;8.57;7.63;;;9.50;99.90;;;;;;5047823;28;20455;-87
2021/12/14 10:03:37;;;;;;;17.50;10.37;;;9.70;99.90;;;;;;5048462;28;20440;-86
2021/12/14 10:06:07;;;;;;;10.87;8.40;;;9.70;99.90;;;;;;5051198;28;20440;-87
2021/12/14 10:08:37;;;;;;;11.10;8.60;;;9.90;99.90;;;;;;5051323;28;20464;-87
2021/12/14 10:11:11;;;;;;;10.43;7.83;;;9.80;99.90;;;;;;5051377;28;20437;-86
2021/12/14 10:13:43;;;;;;;9.60;8.60;;;9.80;99.90;;;;;;5050557;28;20472;-87
2021/12/14 10:16:11;;;;;;;10.20;9.10;;;9.80;99.90;;;;;;5049355;28;20451;-86
2021/12/14 10:18:40;;;;;;;9.30;7.87;;;9.60;99.90;;;;;;5050860;28;20460;-88
2021/12/14 10:21:12;;;;;;;11.30;9.90;;;9.40;99.90;;;;;;5049605;28;20477;-87
2021/12/14 10:23:40;;;;;;;10.90;8.00;;;9.20;99.90;;;;;;5049790;28;20448;-87
2021/12/14 10:26:09;;;;;;;17.50;8.80;;;9.20;99.90;;;;;;5054252;28;20459;-87
2021/12/14 10:28:38;;;;;;;10.17;7.80;;;9.00;99.90;;;;;;5069892;28;20460;-87
2021/12/14 10:31:08;;;;;;;9.40;8.23;;;9.00;99.90;;;;;;5051244;28;20467;-87
2021/12/14 10:33:38;;;;;;;10.67;9.47;;;9.10;99.90;;;;;;5050008;27;20451;-87
2021/12/14 10:36:16;;;;;;;10.57;9.47;;;9.20;99.90;;;;;;5055455;28;20444;-86
2021/12/14 10:39:03;;;;;;;10.37;8.00;;;9.40;99.90;;;;;;5053796;28;20471;-87
2021/12/14 10:44:14;;;;;;;16.53;8.67;;;9.50;99.90;;;;;;5064142;28;20463;-87
2021/12/14 10:46:46;;;;;;;11.03;8.87;;;9.80;99.90;;;;;;5049926;28;20445;-87
2021/12/14 10:49:15;;;;;;;13.93;9.33;;;9.90;99.90;;;;;;5050314;28;20449;-87
2021/12/14 10:51:44;;;;;;;11.00;8.53;;;10.10;99.90;;;;;;5050641;28;20471;-87
2021/12/14 10:54:14;;;;;;;8.03;7.30;;;11.30;99.90;;;;;;5053957;27;20442;-86
2021/12/14 10:56:46;;;;;;;11.97;8.33;;;12.70;99.90;;;;;;5057464;28;20452;-86
2021/12/14 10:59:18;;;;;;;12.13;9.13;;;13.40;99.90;;;;;;5050880;28;20456;-86
2021/12/14 11:01:50;;;;;;;11.37;8.70;;;13.70;99.00;;;;;;5054261;28;20439;-85
2021/12/14 11:04:20;;;;;;;9.40;8.30;;;13.60;98.00;;;;;;5055296;28;20556;-86
2021/12/14 11:06:49;;;;;;;13.77;8.90;;;13.40;97.60;;;;;;5050869;28;20443;-87
2021/12/14 11:09:42;;;;;;;12.07;9.60;;;13.00;97.80;;;;;;5053631;27;21233;-87
2021/12/14 11:12:17;;;;;;;12.03;9.77;;;12.60;98.10;;;;;;5061767;28;20462;-86
2021/12/14 11:14:44;;;;;;;13.60;10.10;;;12.20;98.60;;;;;;5048373;28;20447;-86
2021/12/14 11:20:06;;;;;;;9.30;8.40;;;12.50;99.40;;;;;;5080896;28;20433;-87
2021/12/14 11:22:41;;;;;;;9.07;8.27;;;13.20;98.90;;;;;;5056035;28;20812;-87
2021/12/14 11:25:11;;;;;;;10.37;8.57;;;13.20;98.30;;;;;;5049130;28;20484;-87
2021/12/14 11:27:42;;;;;;;12.23;9.27;;;12.80;98.40;;;;;;5047912;28;21006;-86
2021/12/14 11:30:18;;;;;;;10.93;9.40;;;12.70;98.70;;;;;;5070433;28;20458;-85
2021/12/14 11:32:48;;;;;;;11.67;10.47;;;12.90;98.60;;;;;;5070530;28;20434;-86
2021/12/14 11:35:21;;;;;;;10.27;9.27;;;13.20;98.60;;;;;;5055065;28;20492;-86
2021/12/14 11:37:48;;;;;;;9.87;8.90;;;13.20;98.00;;;;;;5049125;28;20477;-86
2021/12/14 11:40:15;;;;;;;11.63;9.53;;;13.50;97.80;;;;;;5050146;28;20875;-88
2021/12/14 11:42:42;;;;;;;9.20;8.27;;;13.90;97.40;;;;;;5050927;28;20453;-87
2021/12/14 11:45:16;;;;;;;12.43;10.07;;;13.90;96.70;;;;;;5051547;28;20998;-87
2021/12/14 11:47:50;;;;;;;10.70;9.60;;;13.30;97.00;;;;;;5049204;28;20465;-87
2021/12/14 11:50:23;;;;;;;13.93;9.63;;;13.10;98.00;;;;;;5051902;28;20461;-87
2021/12/14 11:52:53;;;;;;;9.80;8.80;;;13.90;97.10;;;;;;5051474;28;20850;-87
2021/12/14 11:55:38;;;;;;;10.93;9.67;;;13.70;96.30;;;;;;5054298;28;20449;-87
2021/12/14 11:58:26;;;;;;;10.23;9.07;;;12.50;97.50;;;;;;5049775;28;20472;-92
2021/12/14 12:00:57;;;;;;;12.57;10.70;;;12.10;99.10;;;;;;5054967;28;20461;-86
2021/12/14 12:03:32;;;;;;;10.67;9.63;;;12.20;99.30;;;;;;5070290;28;20440;-86
2021/12/14 12:06:07;;;;;;;10.53;9.17;;;13.00;98.70;;;;;;5061862;27;21001;-87
2021/12/14 12:11:30;;;;;;;12.87;9.73;;;14.60;95.20;;;;;;5062398;28;20518;-87
2021/12/14 12:13:59;;;;;;;9.80;8.80;;;15.30;95.80;;;;;;5056115;28;20450;-88
2021/12/14 12:16:29;;;;;;;10.73;9.73;;;15.90;94.20;;;;;;5052257;28;20451;-88
2021/12/14 12:19:09;;;;;;;11.23;9.40;;;15.60;93.10;;;;;;5057464;28;20466;-87
2021/12/14 12:21:37;;;;;;;14.10;9.70;;;15.40;93.20;;;;;;5052213;28;20495;-88
2021/12/14 12:24:05;;;;;;;11.60;10.50;;;15.50;93.40;;;;;;5061809;28;20448;-88
2021/12/14 12:26:34;;;;;;;10.60;9.53;;;15.30;93.50;;;;;;5052408;28;20467;-88
2021/12/14 12:29:06;;;;;;;10.27;9.27;;;15.00;93.40;;;;;;5050362;28;20552;-87
2021/12/14 12:31:46;;;;;;;10.27;9.27;;;14.80;93.90;;;;;;5059530;28;20447;-86
2021/12/14 12:34:14;;;;;;;11.67;9.83;;;14.70;93.90;;;;;;5067529;28;20511;-89
2021/12/14 12:36:44;;;;;;;12.10;10.80;;;13.90;94.70;;;;;;5053882;28;20445;-87
2021/12/14 12:39:13;;;;;;;10.97;10.00;;;13.70;95.50;;;;;;5050858;28;20454;-88
2021/12/14 12:41:46;;;;;;;10.50;9.40;;;13.10;96.20;;;;;;5057401;28;20514;-89
2021/12/14 12:44:16;;;;;;;12.07;9.33;;;13.00;97.00;;;;;;5054817;28;20468;-87
2021/12/14 12:46:48;;;;;;;14.20;12.10;;;13.00;97.30;;;;;;5053121;28;20782;-87
2021/12/14 12:49:20;;;;;;;11.90;10.80;;;12.80;97.40;;;;;;5050367;28;20470;-87
2021/12/14 12:52:13;;;;;;;12.60;9.83;;;12.60;97.80;;;;;;5054507;28;20956;-88
2021/12/14 12:54:59;;;;;;;9.90;8.73;;;12.50;97.90;;;;;;5051178;28;20437;-88
2021/12/14 12:57:42;;;;;;;12.20;10.07;;;12.30;98.10;;;;;;5049334;28;20469;-87
2021/12/14 13:00:36;;;;;;;15.87;11.23;;;12.10;98.60;;;;;;5049176;28;20818;-87
2021/12/14 13:03:08;;;;;;;10.90;9.43;;;12.10;98.90;;;;;;5058511;28;20501;-87
2021/12/14 13:05:42;;;;;;;11.97;10.87;;;12.00;99.60;;;;;;5049748;28;20472;-87
2021/12/14 13:08:18;;;;;;;13.07;11.73;;;12.00;99.60;;;;;;5046976;28;20479;-87
2021/12/14 13:10:48;;;;;;;13.43;12.03;;;11.80;99.80;;;;;;5050469;28;20444;-88
2021/12/14 13:13:16;;;;;;;13.13;11.47;;;11.60;99.90;;;;;;5051130;28;20807;-87
2021/12/14 13:15:54;;;;;;;14.50;13.20;;;11.40;99.90;;;;;;5055296;27;20448;-85
2021/12/14 13:18:28;;;;;;;14.30;12.73;;;11.30;99.90;;;;;;5059078;27;20471;-86
2021/12/14 13:21:00;;;;;;;14.17;12.40;;;11.20;99.90;;;;;;5069413;27;20449;-86
2021/12/14 13:23:51;;;;;;;12.97;11.60;;;11.10;99.90;;;;;;5071242;28;20440;-88
2021/12/14 13:26:24;;;;;;;12.73;11.43;;;10.80;99.90;;;;;;5051714;28;20476;-87